createdAt,value
2019-05-09T00:02:34.647Z,99.90
2019-05-09T00:05:06.048Z,99.90
2019-05-09T00:07:36.938Z,99.90
2019-05-09T00:10:07.570Z,99.90
2019-05-09T00:12:37.639Z,99.90
2019-05-09T00:15:08.104Z,99.90
2019-05-09T00:17:38.511Z,99.90
2019-05-09T00:20:40.531Z,99.90
2019-05-09T00:23:13.480Z,99.90
2019-05-09T00:25:43.501Z,99.90
2019-05-09T00:28:14.032Z,99.90
2019-05-09T00:31:03.346Z,99.90
2019-05-09T00:33:34.371Z,99.90
2019-05-09T00:36:04.756Z,99.90
2019-05-09T00:38:39.369Z,99.90
2019-05-09T00:41:19.899Z,99.90
2019-05-09T00:44:03.260Z,99.90
2019-05-09T00:46:43.167Z,99.90
2019-05-09T00:49:17.230Z,99.90
2019-05-09T00:51:47.301Z,99.90
2019-05-09T00:54:17.907Z,99.90
2019-05-09T00:56:48.329Z,99.90
2019-05-09T00:59:18.660Z,99.90
2019-05-09T01:01:48.734Z,99.90
2019-05-09T01:04:19.079Z,99.90
2019-05-09T01:06:49.155Z,99.90
2019-05-09T01:09:19.221Z,99.90
2019-05-09T01:11:49.786Z,99.90
2019-05-09T01:14:20.115Z,99.90
2019-05-09T01:16:50.214Z,99.90
2019-05-09T01:19:20.594Z,99.90
2019-05-09T01:21:50.670Z,99.90
2019-05-09T01:24:23.120Z,99.90
2019-05-09T01:26:54.211Z,99.90
2019-05-09T01:29:48.087Z,99.90
2019-05-09T01:32:36.939Z,99.90
2019-05-09T01:35:07.202Z,99.90
2019-05-09T01:37:37.542Z,99.90
2019-05-09T01:40:17.594Z,99.90
2019-05-09T01:42:48.169Z,99.90
2019-05-09T01:45:18.261Z,99.90
2019-05-09T01:47:48.356Z,99.90
2019-05-09T01:50:20.743Z,99.90
2019-05-09T01:52:50.815Z,99.90
2019-05-09T01:55:23.507Z,99.90
2019-05-09T01:57:54.004Z,99.90
2019-05-09T02:00:24.803Z,99.90
2019-05-09T02:02:55.151Z,99.90
2019-05-09T02:05:25.209Z,99.90
2019-05-09T02:07:55.513Z,99.90
2019-05-09T02:10:25.829Z,99.90
2019-05-09T02:12:56.183Z,99.90
2019-05-09T02:15:38.969Z,99.90
2019-05-09T02:18:15.514Z,99.90
2019-05-09T02:20:45.596Z,99.90
2019-05-09T02:23:16.130Z,99.90
2019-05-09T02:25:57.498Z,99.90
2019-05-09T02:28:27.545Z,99.90
2019-05-09T02:30:58.951Z,99.90
2019-05-09T02:33:29.046Z,99.90
2019-05-09T02:36:02.043Z,99.90
2019-05-09T02:38:31.431Z,99.90
2019-05-09T02:41:02.017Z,99.90
2019-05-09T02:43:33.231Z,99.90
2019-05-09T02:46:19.999Z,99.90
2019-05-09T02:49:01.023Z,99.90
2019-05-09T02:51:31.394Z,99.90
2019-05-09T02:54:01.477Z,99.90
2019-05-09T02:56:43.461Z,99.90
2019-05-09T02:59:25.738Z,99.90
2019-05-09T03:02:04.597Z,99.90
2019-05-09T03:04:35.061Z,99.90
2019-05-09T03:07:40.961Z,99.90
2019-05-09T03:10:11.944Z,99.90
2019-05-09T03:12:42.016Z,99.90
2019-05-09T03:15:12.429Z,99.90
2019-05-09T03:17:42.849Z,99.90
2019-05-09T03:20:19.567Z,99.90
2019-05-09T03:22:50.364Z,99.90
2019-05-09T03:25:20.447Z,99.90
2019-05-09T03:27:58.681Z,99.90
2019-05-09T03:30:31.578Z,99.90
2019-05-09T03:33:02.849Z,99.90
2019-05-09T03:35:33.378Z,99.90
2019-05-09T03:38:08.382Z,99.90
2019-05-09T03:40:38.799Z,99.90
2019-05-09T03:43:08.935Z,99.90
2019-05-09T03:45:48.900Z,99.90
2019-05-09T03:48:33.330Z,99.90
2019-05-09T03:51:04.844Z,99.90
2019-05-09T03:53:35.153Z,99.90
2019-05-09T03:56:07.981Z,99.90
2019-05-09T03:58:42.092Z,99.90
2019-05-09T04:01:21.433Z,99.90
2019-05-09T04:03:55.046Z,99.90
2019-05-09T04:06:25.355Z,99.90
2019-05-09T04:08:58.490Z,99.90
2019-05-09T04:11:29.058Z,99.90
2019-05-09T04:14:04.362Z,99.90
2019-05-09T04:16:34.501Z,99.90
2019-05-09T04:19:04.966Z,99.90
2019-05-09T04:21:35.046Z,99.90
2019-05-09T04:24:05.125Z,99.90
2019-05-09T04:26:43.917Z,99.90
2019-05-09T04:29:14.014Z,99.90
2019-05-09T04:31:44.575Z,99.90
2019-05-09T04:34:15.620Z,99.90
2019-05-09T04:36:48.217Z,99.90
2019-05-09T04:39:23.134Z,99.90
2019-05-09T04:41:50.237Z,99.90
2019-05-09T04:44:37.350Z,99.90
2019-05-09T04:47:08.750Z,99.90
2019-05-09T04:49:40.868Z,99.90
2019-05-09T04:52:19.310Z,99.90
2019-05-09T04:54:49.708Z,99.90
2019-05-09T04:57:38.354Z,99.90
2019-05-09T05:00:11.417Z,99.90
2019-05-09T05:02:44.979Z,99.90
2019-05-09T05:05:15.362Z,99.90
2019-05-09T05:07:47.942Z,99.90
2019-05-09T05:10:18.417Z,99.90
2019-05-09T05:12:48.629Z,99.90
2019-05-09T05:15:20.527Z,99.90
2019-05-09T05:17:51.233Z,99.90
2019-05-09T05:20:24.523Z,99.90
2019-05-09T05:23:04.101Z,99.90
2019-05-09T05:25:34.165Z,99.90
2019-05-09T05:28:04.472Z,99.90
2019-05-09T05:30:37.116Z,99.90
2019-05-09T05:33:28.646Z,99.90
2019-05-09T05:36:02.462Z,99.90
2019-05-09T05:38:32.534Z,99.90
2019-05-09T05:41:03.866Z,99.90
2019-05-09T05:43:41.553Z,99.90
2019-05-09T05:46:28.654Z,99.90
2019-05-09T05:48:59.123Z,99.90
2019-05-09T05:51:51.918Z,99.90
2019-05-09T05:54:22.485Z,99.90
2019-05-09T05:56:53.041Z,99.90
2019-05-09T05:59:23.345Z,99.90
2019-05-09T06:01:53.432Z,99.90
2019-05-09T06:04:24.003Z,99.90
2019-05-09T06:06:54.089Z,99.90
2019-05-09T06:09:24.170Z,99.90
2019-05-09T06:11:54.744Z,99.90
2019-05-09T06:14:24.813Z,99.90
2019-05-09T06:16:54.887Z,99.90
2019-05-09T06:19:24.941Z,99.90
2019-05-09T06:22:01.069Z,99.90
2019-05-09T06:24:31.128Z,99.90
2019-05-09T06:27:01.170Z,99.90
2019-05-09T06:29:31.239Z,99.90
2019-05-09T06:32:01.777Z,99.90
2019-05-09T06:34:31.839Z,99.90
2019-05-09T06:37:03.491Z,99.90
2019-05-09T06:39:34.189Z,99.90
2019-05-09T06:42:04.882Z,99.90
2019-05-09T06:44:47.960Z,99.90
2019-05-09T06:47:29.726Z,99.90
2019-05-09T06:50:01.872Z,99.90
2019-05-09T06:52:33.241Z,99.90
2019-05-09T06:55:03.575Z,99.90
2019-05-09T06:57:34.114Z,99.90
2019-05-09T07:00:08.421Z,99.90
2019-05-09T07:02:47.913Z,99.90
2019-05-09T07:05:38.682Z,99.90
2019-05-09T07:08:20.017Z,99.90
2019-05-09T07:10:50.411Z,99.90
2019-05-09T07:13:20.862Z,99.90
2019-05-09T07:15:51.020Z,99.90
2019-05-09T07:18:21.387Z,99.90
2019-05-09T07:20:52.786Z,99.90
2019-05-09T07:23:23.394Z,99.90
2019-05-09T07:26:11.471Z,99.90
2019-05-09T07:28:41.770Z,99.90
2019-05-09T07:31:40.413Z,99.90
2019-05-09T07:34:21.055Z,99.90
2019-05-09T07:36:51.458Z,99.90
2019-05-09T07:39:22.990Z,99.90
2019-05-09T07:41:53.402Z,99.90
2019-05-09T07:44:46.255Z,99.90
2019-05-09T07:47:08.073Z,99.90
2019-05-09T07:49:38.275Z,99.90
2019-05-09T07:52:10.318Z,99.90
2019-05-09T07:54:41.091Z,99.90
2019-05-09T07:57:11.346Z,99.90
2019-05-09T07:59:41.703Z,99.90
2019-05-09T08:02:11.842Z,99.90
2019-05-09T08:04:41.950Z,99.90
2019-05-09T08:07:12.319Z,99.90
2019-05-09T08:09:42.943Z,99.90
2019-05-09T08:12:14.131Z,99.90
2019-05-09T08:14:44.498Z,99.90
2019-05-09T08:17:14.662Z,99.90
2019-05-09T08:19:44.866Z,99.90
2019-05-09T08:22:20.067Z,99.90
2019-05-09T08:24:48.310Z,99.90
2019-05-09T08:27:19.014Z,99.90
2019-05-09T08:29:49.393Z,99.90
2019-05-09T08:32:19.520Z,99.90
2019-05-09T08:34:50.150Z,99.90
2019-05-09T08:37:20.828Z,99.90
2019-05-09T08:39:52.530Z,99.90
2019-05-09T08:42:22.648Z,99.90
2019-05-09T08:44:53.031Z,99.90
2019-05-09T08:47:23.424Z,99.90
2019-05-09T08:50:18.726Z,99.90
2019-05-09T08:52:49.191Z,99.90
2019-05-09T08:55:19.575Z,99.90
2019-05-09T08:57:49.950Z,99.90
2019-05-09T09:00:20.318Z,99.90
2019-05-09T09:02:50.970Z,99.90
2019-05-09T09:05:23.116Z,99.90
2019-05-09T09:07:53.522Z,99.90
2019-05-09T09:10:23.870Z,99.90
2019-05-09T09:12:54.338Z,99.90
2019-05-09T09:15:48.065Z,99.90
2019-05-09T09:17:57.922Z,99.90
2019-05-09T09:20:28.997Z,99.90
2019-05-09T09:23:00.263Z,99.90
2019-05-09T09:25:30.644Z,99.90
2019-05-09T09:28:01.228Z,99.90
2019-05-09T09:30:31.394Z,99.90
2019-05-09T09:33:01.491Z,99.90
2019-05-09T09:35:31.995Z,99.90
2019-05-09T09:38:02.397Z,99.90
2019-05-09T09:40:33.186Z,99.90
2019-05-09T09:43:03.599Z,99.90
2019-05-09T09:45:34.198Z,99.90
2019-05-09T09:48:04.740Z,99.90
2019-05-09T09:50:51.428Z,99.90
2019-05-09T09:53:19.818Z,99.90
2019-05-09T09:55:50.050Z,99.90
2019-05-09T09:58:20.695Z,99.90
2019-05-09T10:01:11.986Z,99.90
2019-05-09T10:03:42.347Z,99.90
2019-05-09T10:06:18.339Z,99.90
2019-05-09T10:08:49.104Z,99.90
2019-05-09T10:11:19.327Z,99.90
2019-05-09T10:13:51.784Z,99.90
2019-05-09T10:16:39.052Z,99.90
2019-05-09T10:19:14.714Z,99.90
2019-05-09T10:21:54.378Z,99.90
2019-05-09T10:24:24.693Z,99.90
2019-05-09T10:27:09.216Z,99.90
2019-05-09T10:29:39.893Z,99.90
2019-05-09T10:32:12.581Z,99.90
2019-05-09T10:34:42.989Z,99.90
2019-05-09T10:37:13.441Z,99.90
2019-05-09T10:39:43.522Z,99.90
2019-05-09T10:42:23.772Z,99.90
2019-05-09T10:45:03.998Z,99.90
2019-05-09T10:47:34.286Z,99.90
2019-05-09T10:50:05.100Z,99.90
2019-05-09T10:52:35.403Z,99.90
2019-05-09T10:55:05.504Z,99.90
2019-05-09T10:57:41.630Z,99.90
2019-05-09T11:00:08.845Z,99.90
2019-05-09T11:02:40.167Z,99.90
2019-05-09T11:05:10.367Z,99.90
2019-05-09T11:07:41.812Z,99.90
2019-05-09T11:10:24.798Z,99.90
2019-05-09T11:12:44.425Z,99.90
2019-05-09T11:15:14.818Z,99.90
2019-05-09T11:17:47.406Z,99.90
2019-05-09T11:20:19.416Z,99.90
2019-05-09T11:22:48.930Z,99.90
2019-05-09T11:25:38.229Z,99.90
2019-05-09T11:28:12.684Z,99.90
2019-05-09T11:30:41.049Z,99.90
2019-05-09T11:33:11.346Z,99.90
2019-05-09T11:35:41.433Z,99.90
2019-05-09T11:38:11.594Z,99.90
2019-05-09T11:40:41.734Z,99.90
2019-05-09T11:43:12.246Z,99.90
2019-05-09T11:45:42.305Z,99.90
2019-05-09T11:48:19.294Z,99.90
2019-05-09T11:50:49.573Z,99.90
2019-05-09T11:53:19.849Z,99.90
2019-05-09T11:55:49.939Z,99.90
2019-05-09T11:58:19.988Z,99.90
2019-05-09T12:00:50.049Z,99.90
2019-05-09T12:03:20.363Z,99.90
2019-05-09T12:05:50.758Z,99.90
2019-05-09T12:08:21.942Z,99.90
2019-05-09T12:10:51.998Z,99.90
2019-05-09T12:13:22.054Z,99.90
2019-05-09T12:15:52.847Z,99.90
2019-05-09T12:18:24.474Z,99.90
2019-05-09T12:20:54.745Z,99.90
2019-05-09T12:23:24.803Z,99.90
2019-05-09T12:25:55.129Z,99.90
2019-05-09T12:28:25.675Z,99.90
2019-05-09T12:30:56.449Z,99.90
2019-05-09T12:33:28.815Z,99.90
2019-05-09T12:35:59.454Z,99.90
2019-05-09T12:38:29.668Z,99.90
2019-05-09T12:41:00.687Z,99.90
2019-05-09T12:43:31.663Z,99.90
2019-05-09T12:46:02.220Z,99.90
2019-05-09T12:48:32.265Z,99.90
2019-05-09T12:51:02.812Z,99.90
2019-05-09T12:53:32.850Z,99.50
2019-05-09T12:56:03.161Z,99.60
2019-05-09T12:58:33.219Z,99.90
2019-05-09T13:01:03.279Z,99.90
2019-05-09T13:03:33.570Z,99.90
2019-05-09T13:06:03.868Z,99.90
2019-05-09T13:08:38.514Z,99.90
2019-05-09T13:11:08.986Z,99.90
2019-05-09T13:13:40.892Z,99.90
2019-05-09T13:16:43.512Z,98.70
2019-05-09T13:19:05.641Z,99.60
2019-05-09T13:21:38.811Z,98.90
2019-05-09T13:24:08.764Z,98.80
2019-05-09T13:26:38.994Z,98.90
2019-05-09T13:29:10.380Z,98.80
2019-05-09T13:31:40.853Z,99.50
2019-05-09T13:34:11.140Z,99.90
2019-05-09T13:36:41.679Z,99.90
2019-05-09T13:39:11.747Z,99.90
2019-05-09T13:41:42.530Z,99.90
2019-05-09T13:44:13.905Z,99.90
2019-05-09T13:46:44.394Z,99.90
2019-05-09T13:49:15.755Z,99.90
2019-05-09T13:51:57.957Z,99.90
2019-05-09T13:54:19.011Z,99.90
2019-05-09T13:56:56.697Z,99.10
2019-05-09T13:59:29.269Z,99.00
2019-05-09T14:01:58.143Z,99.00
2019-05-09T14:04:28.784Z,97.90
2019-05-09T14:06:58.887Z,97.30
2019-05-09T14:09:29.605Z,98.10
2019-05-09T14:12:09.121Z,98.80
2019-05-09T14:14:38.926Z,98.50
2019-05-09T14:17:13.545Z,98.90
2019-05-09T14:19:46.522Z,97.80
2019-05-09T14:22:17.736Z,97.40
2019-05-09T14:24:48.374Z,98.30
2019-05-09T14:27:18.840Z,98.20
2019-05-09T14:29:50.438Z,98.90
2019-05-09T14:32:20.522Z,99.40
2019-05-09T14:34:50.978Z,98.80
2019-05-09T14:37:28.544Z,98.80
2019-05-09T14:40:17.439Z,98.70
2019-05-09T14:42:59.625Z,97.60
2019-05-09T14:45:31.098Z,98.20
2019-05-09T14:48:01.157Z,99.10
2019-05-09T14:50:31.386Z,99.40
2019-05-09T14:53:08.671Z,99.30
2019-05-09T14:55:39.957Z,99.60
2019-05-09T14:58:11.038Z,99.90
2019-05-09T15:00:52.353Z,99.30
2019-05-09T15:03:22.726Z,99.90
2019-05-09T15:05:58.853Z,99.90
2019-05-09T15:08:38.479Z,99.90
2019-05-09T15:11:11.946Z,99.90
2019-05-09T15:13:42.967Z,99.90
2019-05-09T15:16:13.574Z,99.90
2019-05-09T15:18:58.420Z,98.00
2019-05-09T15:21:28.871Z,95.70
2019-05-09T15:24:09.448Z,92.20
2019-05-09T15:26:43.596Z,90.50
2019-05-09T15:29:13.892Z,87.00
2019-05-09T15:32:05.379Z,84.70
2019-05-09T15:34:38.160Z,82.90
2019-05-09T15:37:08.899Z,81.30
2019-05-09T15:39:39.402Z,82.80
2019-05-09T15:42:09.969Z,82.80
2019-05-09T15:44:41.335Z,85.10
2019-05-09T15:47:32.283Z,88.20
2019-05-09T15:50:16.591Z,88.30
2019-05-09T15:52:35.086Z,86.50
2019-05-09T15:55:28.285Z,89.30
2019-05-09T15:58:02.523Z,90.00
2019-05-09T16:00:39.932Z,90.40
2019-05-09T16:03:11.955Z,90.90
2019-05-09T16:05:44.030Z,90.40
2019-05-09T16:08:18.244Z,90.50
2019-05-09T16:10:48.681Z,91.60
2019-05-09T16:13:19.525Z,93.60
2019-05-09T16:15:50.839Z,93.40
2019-05-09T16:18:21.561Z,92.40
2019-05-09T16:20:52.232Z,92.70
2019-05-09T16:23:22.944Z,92.00
2019-05-09T16:25:54.007Z,92.50
2019-05-09T16:28:27.851Z,92.90
2019-05-09T16:31:04.658Z,92.90
2019-05-09T16:33:35.168Z,88.80
2019-05-09T16:36:08.631Z,83.30
2019-05-09T16:38:45.700Z,81.30
2019-05-09T16:41:18.506Z,85.50
2019-05-09T16:43:50.334Z,83.60
2019-05-09T16:46:20.966Z,83.80
2019-05-09T16:48:53.087Z,85.90
2019-05-09T16:51:24.253Z,89.30
2019-05-09T16:53:54.723Z,89.20
2019-05-09T16:56:43.574Z,89.50
2019-05-09T16:59:13.694Z,90.60
2019-05-09T17:01:46.658Z,91.90
2019-05-09T17:04:19.125Z,91.60
2019-05-09T17:06:49.984Z,92.90
2019-05-09T17:09:21.178Z,93.40
2019-05-09T17:11:51.662Z,93.80
2019-05-09T17:14:22.089Z,94.50
2019-05-09T17:16:53.172Z,95.40
2019-05-09T17:19:24.745Z,96.00
2019-05-09T17:22:01.620Z,97.50
2019-05-09T17:24:31.850Z,98.80
2019-05-09T17:27:02.421Z,99.90
2019-05-09T17:29:32.489Z,99.90
2019-05-09T17:32:03.058Z,99.90
2019-05-09T17:34:33.448Z,99.90
2019-05-09T17:37:04.758Z,99.90
2019-05-09T17:39:35.157Z,99.90
2019-05-09T17:42:07.542Z,99.90
2019-05-09T17:44:38.378Z,99.90
2019-05-09T17:47:08.437Z,99.90
2019-05-09T17:49:48.259Z,99.90
2019-05-09T17:52:19.313Z,99.90
2019-05-09T17:54:50.048Z,99.90
2019-05-09T17:57:20.747Z,99.90
2019-05-09T17:59:51.180Z,99.90
2019-05-09T18:02:24.048Z,99.90
2019-05-09T18:04:54.516Z,99.90
2019-05-09T18:07:25.041Z,99.90
2019-05-09T18:09:57.930Z,99.90
2019-05-09T18:12:29.640Z,99.90
2019-05-09T18:15:00.379Z,99.90
2019-05-09T18:17:30.951Z,99.90
2019-05-09T18:20:01.875Z,99.90
2019-05-09T18:22:33.039Z,99.90
2019-05-09T18:25:09.902Z,99.90
2019-05-09T18:27:40.025Z,99.90
2019-05-09T18:30:12.439Z,99.90
2019-05-09T18:33:02.031Z,99.90
2019-05-09T18:35:33.845Z,99.90
2019-05-09T18:38:17.410Z,99.90
2019-05-09T18:41:10.171Z,99.90
2019-05-09T18:46:17.594Z,99.90
2019-05-09T18:49:00.896Z,99.90
2019-05-09T18:51:43.437Z,99.90
2019-05-09T18:54:25.940Z,99.90
2019-05-09T18:57:07.965Z,99.90
2019-05-09T18:59:50.425Z,99.90
2019-05-09T19:02:32.665Z,99.90
2019-05-09T19:05:14.426Z,99.90
2019-05-09T19:07:57.333Z,99.90
2019-05-09T19:10:39.613Z,99.90
2019-05-09T19:13:21.225Z,99.90
2019-05-09T19:16:22.907Z,99.90
2019-05-09T19:19:24.373Z,99.90
2019-05-09T19:22:21.076Z,99.90
2019-05-09T19:24:51.171Z,99.90
2019-05-09T19:27:33.491Z,99.90
2019-05-09T19:30:15.514Z,99.90
2019-05-09T19:32:58.236Z,99.90
2019-05-09T19:35:40.313Z,99.90
2019-05-09T19:38:22.581Z,99.90
2019-05-09T19:41:06.109Z,99.90
2019-05-09T19:43:48.245Z,99.90
2019-05-09T19:46:30.630Z,99.90
2019-05-09T19:49:14.178Z,99.90
2019-05-09T19:51:56.729Z,99.90
2019-05-09T19:54:39.609Z,99.90
2019-05-09T19:57:21.588Z,99.90
2019-05-09T20:00:04.306Z,99.90
2019-05-09T20:02:47.497Z,99.90
2019-05-09T20:05:29.758Z,99.90
2019-05-09T20:08:11.449Z,99.90
2019-05-09T20:11:12.451Z,99.90
2019-05-09T20:14:14.326Z,99.90
2019-05-09T20:16:57.098Z,99.90
2019-05-09T20:19:39.385Z,99.90
2019-05-09T20:22:22.149Z,99.90
2019-05-09T20:25:04.694Z,99.90
2019-05-09T20:27:46.370Z,99.90
2019-05-09T20:30:28.634Z,99.90
2019-05-09T20:33:11.241Z,99.90
2019-05-09T20:35:53.749Z,99.90
2019-05-09T20:38:35.641Z,99.90
2019-05-09T20:41:17.845Z,99.90
2019-05-09T20:43:59.833Z,99.90
2019-05-09T20:46:42.614Z,99.90
2019-05-09T20:49:24.530Z,99.90
2019-05-09T20:52:07.449Z,99.90
2019-05-09T20:54:50.099Z,99.90
2019-05-09T20:57:33.186Z,99.90
2019-05-09T21:00:15.382Z,99.90
2019-05-09T21:02:58.305Z,99.90
2019-05-09T21:05:40.792Z,99.90
2019-05-09T21:08:23.518Z,99.90
2019-05-09T21:11:06.071Z,99.90
2019-05-09T21:13:49.112Z,99.90
2019-05-09T21:16:31.617Z,99.90
2019-05-09T21:19:14.054Z,99.90
2019-05-09T21:21:57.652Z,99.90
2019-05-09T21:24:39.972Z,99.90
2019-05-09T21:27:22.605Z,99.90
2019-05-09T21:30:05.285Z,99.90
2019-05-09T21:32:47.743Z,99.90
2019-05-09T21:35:29.753Z,99.90
2019-05-09T21:38:12.294Z,99.90
2019-05-09T21:40:54.129Z,99.90
2019-05-09T21:43:36.578Z,99.90
2019-05-09T21:46:18.965Z,99.90
2019-05-09T21:49:00.924Z,99.90
2019-05-09T21:51:43.354Z,99.90
2019-05-09T21:54:25.858Z,99.90
2019-05-09T21:57:08.303Z,99.90
2019-05-09T21:59:49.962Z,99.90
2019-05-09T22:02:31.997Z,99.90
2019-05-09T22:05:14.194Z,99.90
2019-05-09T22:07:56.076Z,99.90
2019-05-09T22:10:37.848Z,99.90
2019-05-09T22:13:19.873Z,99.90
2019-05-09T22:16:02.711Z,99.90
2019-05-09T22:18:44.836Z,99.90
2019-05-09T22:21:26.914Z,99.90
2019-05-09T22:24:09.699Z,99.90
2019-05-09T22:26:51.886Z,99.90
2019-05-09T22:29:33.761Z,99.90
2019-05-09T22:32:16.263Z,99.90
2019-05-09T22:34:58.358Z,99.90
2019-05-09T22:37:40.799Z,99.90
2019-05-09T22:40:22.677Z,99.90
2019-05-09T22:43:05.396Z,99.90
2019-05-09T22:45:47.127Z,99.90
2019-05-09T22:48:28.874Z,99.90
2019-05-09T22:51:10.616Z,99.90
2019-05-09T22:53:52.541Z,99.90
2019-05-09T22:56:34.947Z,99.90
2019-05-09T22:59:17.542Z,99.90
2019-05-09T23:02:06.549Z,99.90
2019-05-09T23:04:44.079Z,99.90
2019-05-09T23:07:26.449Z,99.90
2019-05-09T23:10:09.006Z,99.90
2019-05-09T23:12:50.945Z,99.90
2019-05-09T23:15:33.237Z,99.90
2019-05-09T23:18:15.365Z,99.90
2019-05-09T23:20:59.443Z,99.90
2019-05-09T23:23:44.557Z,99.90
2019-05-09T23:26:26.553Z,99.90
2019-05-09T23:29:09.646Z,99.90
2019-05-09T23:32:11.024Z,99.90
2019-05-09T23:34:54.045Z,99.90
2019-05-09T23:37:35.945Z,99.90
2019-05-09T23:40:18.797Z,99.90
2019-05-09T23:43:01.477Z,99.90
2019-05-09T23:45:43.396Z,99.90
2019-05-09T23:48:25.489Z,99.90
2019-05-09T23:51:07.133Z,99.90
2019-05-09T23:53:55.220Z,99.90
2019-05-09T23:56:56.922Z,99.90
2019-05-09T23:59:58.498Z,99.90
